Airfield :
LOGIN :

Register | Disclaimer

   EN    FR    IT 

 










Legend :    VFR   Marginal VFR   IFR   Intensive IFR   Very Intensive IFR
Visi :
Ceiling :
>= 8 km
>= 3000ft
5 to 8 km
1000 to 3000 ft
1500m to 5 km
500 to 1000 ft
800 to 1500m
200 to 500 ft
< 800m
< 200 ft
Symbols :   Thunderstorms  Fog  Heavy snow  Heavy precipitations  Wind > 20 kt
SIGMETs :     Misc.  Thunderstorms  Icing  Turbulence  Mountain Waves  Volcanic Ashes







- Airport Elevation : 665 ft
- IATA code : NOC


EIKN - Connaught / Knock- Ireland West

METAR N/A
TAF TAF EIKN
Valid from the 22 at 00:00 until the 23 at 00:00 UTC


212300Z 2200/2224 31020G35KT 9999 SCT012 BKN020
TEMPO 2200/2203 30025G40KT 3000 SHRA BKN007 FEW018CB
BECMG 2202/2205 30015KT
PROB30
TEMPO 2205/2209 BKN012
BECMG 2206/2209 27010KT
BECMG 2214/2217 20010KT 7000 -RA BKN008
BECMG 2217/2220 17015KT 3000 -RADZ BKN003
No reported NOTAMs for that airfield.
1 SIGMET reported for the Shannon FIR (EISN) :
 
Severe turbulence
EISN SIGMET 01 VALID 220030/220430 EINN
EISN SHANNON FIR SEV TURB FCST NE OF LINE N5434 W01000 - N5300 W00600 SFC/FL060 STNR WKN=



MET'MAP, your aeronautical weather chart ! - Copyright ORBIFLY December 2007 - Disclaimer

ORBIFLY MET'MAP TEAM :

Programming & Development : Alexandra Zaïnal
Concept & Development : Baudouin d'Aumeries
Co-Development & Prog : Marc-Olivier Méhu
Technical & hardware support : Manuel Goepfert

Contact : metmap@orbifly.com




SOURCES & CREDITS :

   NOAA